createdAt,value
2018-05-12T00:02:05.144Z,89.60
2018-05-12T00:04:32.738Z,89.40
2018-05-12T00:07:01.082Z,90.10
2018-05-12T00:09:28.725Z,90.20
2018-05-12T00:11:56.292Z,90.50
2018-05-12T00:14:23.876Z,90.40
2018-05-12T00:16:51.426Z,90.20
2018-05-12T00:19:18.993Z,90.60
2018-05-12T00:21:46.579Z,90.70
2018-05-12T00:24:14.163Z,90.90
2018-05-12T00:26:42.501Z,91.20
2018-05-12T00:29:11.311Z,91.30
2018-05-12T00:31:38.903Z,91.30
2018-05-12T00:34:06.720Z,91.50
2018-05-12T00:36:34.312Z,91.40
2018-05-12T00:39:01.874Z,91.50
2018-05-12T00:41:29.445Z,91.80
2018-05-12T00:43:57.006Z,92.10
2018-05-12T00:46:24.605Z,92.00
2018-05-12T00:48:52.946Z,92.00
2018-05-12T00:51:20.522Z,92.00
2018-05-12T00:53:48.890Z,92.20
2018-05-12T00:56:16.568Z,92.10
2018-05-12T00:58:44.146Z,92.40
2018-05-12T01:01:11.743Z,92.40
2018-05-12T01:03:39.347Z,92.80
2018-05-12T01:06:06.967Z,92.80
2018-05-12T01:08:34.551Z,93.10
2018-05-12T01:11:02.143Z,93.20
2018-05-12T01:13:29.778Z,93.20
2018-05-12T01:15:57.352Z,93.40
2018-05-12T01:18:25.681Z,93.40
2018-05-12T01:20:53.259Z,93.40
2018-05-12T01:23:20.830Z,93.60
2018-05-12T01:25:49.233Z,93.90
2018-05-12T01:28:16.848Z,93.90
2018-05-12T01:30:44.442Z,93.90
2018-05-12T01:33:12.782Z,94.40
2018-05-12T01:35:40.374Z,94.40
2018-05-12T01:38:07.950Z,94.30
2018-05-12T01:40:37.551Z,94.60
2018-05-12T01:43:05.153Z,94.60
2018-05-12T01:45:32.722Z,94.60
2018-05-12T01:48:00.333Z,94.80
2018-05-12T01:50:27.932Z,94.90
2018-05-12T01:52:56.303Z,95.10
2018-05-12T01:55:24.661Z,95.40
2018-05-12T01:57:53.545Z,95.40
2018-05-12T02:00:21.119Z,95.50
2018-05-12T02:02:48.756Z,95.40
2018-05-12T02:05:16.405Z,96.00
2018-05-12T02:07:44.016Z,95.70
2018-05-12T02:10:11.616Z,95.80
2018-05-12T02:12:39.960Z,95.90
2018-05-12T02:15:07.558Z,95.90
2018-05-12T02:17:35.917Z,96.30
2018-05-12T02:20:03.546Z,96.20
2018-05-12T02:22:31.180Z,96.40
2018-05-12T02:24:59.518Z,96.40
2018-05-12T02:27:27.090Z,96.40
2018-05-12T02:29:54.674Z,96.50
2018-05-12T02:32:22.269Z,96.90
2018-05-12T02:34:49.855Z,97.10
2018-05-12T02:37:17.438Z,97.10
2018-05-12T02:39:45.057Z,97.00
2018-05-12T02:42:12.663Z,97.00
2018-05-12T02:44:41.162Z,97.40
2018-05-12T02:47:08.765Z,97.40
2018-05-12T02:49:36.336Z,97.60
2018-05-12T02:52:04.686Z,97.80
2018-05-12T02:54:33.077Z,98.10
2018-05-12T02:57:00.671Z,98.10
2018-05-12T02:59:28.268Z,97.80
2018-05-12T03:01:55.850Z,98.00
2018-05-12T03:04:23.433Z,98.10
2018-05-12T03:06:51.022Z,98.20
2018-05-12T03:09:19.385Z,98.40
2018-05-12T03:11:46.995Z,98.40
2018-05-12T03:14:14.624Z,98.60
2018-05-12T03:16:42.280Z,98.70
2018-05-12T03:19:09.777Z,98.90
2018-05-12T03:21:37.374Z,99.00
2018-05-12T03:24:04.953Z,99.00
2018-05-12T03:26:32.531Z,99.30
2018-05-12T03:29:00.119Z,99.50
2018-05-12T03:31:27.705Z,99.50
2018-05-12T03:33:55.276Z,99.60
2018-05-12T03:36:23.774Z,99.80
2018-05-12T03:38:51.360Z,99.90
2018-05-12T03:41:18.939Z,99.90
2018-05-12T03:43:46.591Z,99.90
2018-05-12T03:46:14.154Z,99.90
2018-05-12T03:48:41.748Z,99.90
2018-05-12T03:51:10.106Z,99.90
2018-05-12T03:53:37.702Z,99.90
2018-05-12T03:56:05.292Z,99.90
2018-05-12T03:58:32.854Z,99.90
2018-05-12T04:01:01.204Z,99.90
2018-05-12T04:03:28.776Z,99.90
2018-05-12T04:06:08.141Z,99.90
2018-05-12T04:08:47.479Z,99.90
2018-05-12T04:11:26.926Z,99.90
2018-05-12T04:13:54.503Z,99.90
2018-05-12T04:16:22.088Z,99.90
2018-05-12T04:18:49.650Z,99.90
2018-05-12T04:21:17.267Z,99.90
2018-05-12T04:23:45.599Z,99.90
2018-05-12T04:26:13.187Z,99.90
2018-05-12T04:28:40.769Z,99.90
2018-05-12T04:31:09.140Z,99.90
2018-05-12T04:33:37.488Z,99.90
2018-05-12T04:36:05.144Z,99.90
2018-05-12T04:38:32.781Z,99.90
2018-05-12T04:41:00.366Z,99.90
2018-05-12T04:43:27.960Z,99.90
2018-05-12T04:45:55.558Z,99.90
2018-05-12T04:48:23.912Z,99.90
2018-05-12T04:50:52.067Z,99.90
2018-05-12T04:53:19.689Z,99.90
2018-05-12T04:55:48.035Z,99.90
2018-05-12T04:58:15.615Z,99.90
2018-05-12T05:00:43.203Z,99.90
2018-05-12T05:03:11.553Z,99.90
2018-05-12T05:05:39.137Z,99.90
2018-05-12T05:08:06.756Z,99.90
2018-05-12T05:10:34.334Z,99.90
2018-05-12T05:13:01.932Z,99.90
2018-05-12T05:15:30.290Z,99.90
2018-05-12T05:17:57.993Z,99.90
2018-05-12T05:20:26.344Z,99.90
2018-05-12T05:22:53.969Z,99.90
2018-05-12T05:25:21.530Z,99.90
2018-05-12T05:27:49.121Z,99.90
2018-05-12T05:30:16.741Z,99.90
2018-05-12T05:32:44.315Z,99.90
2018-05-12T05:35:12.784Z,99.90
2018-05-12T05:37:40.283Z,99.90
2018-05-12T05:40:07.853Z,99.90
2018-05-12T05:42:35.435Z,99.90
2018-05-12T05:45:03.025Z,99.90
2018-05-12T05:47:31.404Z,99.30
2018-05-12T05:49:59.941Z,98.90
2018-05-12T05:52:27.518Z,98.90
2018-05-12T05:54:55.098Z,98.60
2018-05-12T05:57:22.670Z,98.30
2018-05-12T05:59:50.257Z,98.20
2018-05-12T06:02:17.860Z,98.10
2018-05-12T06:04:45.425Z,98.20
2018-05-12T06:07:13.079Z,97.90
2018-05-12T06:09:40.653Z,97.70
2018-05-12T06:12:08.231Z,97.70
2018-05-12T06:14:35.825Z,97.50
2018-05-12T06:17:03.415Z,97.60
2018-05-12T06:19:31.030Z,97.10
2018-05-12T06:21:58.650Z,97.00
2018-05-12T06:24:26.648Z,96.70
2018-05-12T06:26:54.240Z,96.70
2018-05-12T06:29:21.850Z,97.10
2018-05-12T06:31:49.413Z,96.90
2018-05-12T06:34:17.073Z,96.60
2018-05-12T06:36:44.672Z,96.20
2018-05-12T06:39:13.052Z,96.20
2018-05-12T06:41:41.382Z,96.00
2018-05-12T06:44:08.958Z,95.90
2018-05-12T06:46:36.579Z,95.70
2018-05-12T06:49:04.190Z,96.10
2018-05-12T06:51:31.794Z,96.20
2018-05-12T06:53:59.383Z,95.80
2018-05-12T06:56:26.974Z,95.40
2018-05-12T06:58:54.545Z,94.80
2018-05-12T07:01:22.208Z,95.70
2018-05-12T07:03:50.493Z,95.60
2018-05-12T07:06:18.088Z,95.60
2018-05-12T07:08:46.388Z,95.60
2018-05-12T07:11:13.988Z,95.90
2018-05-12T07:13:41.603Z,94.90
2018-05-12T07:16:09.186Z,95.10
2018-05-12T07:18:36.766Z,94.90
2018-05-12T07:21:04.392Z,95.10
2018-05-12T07:23:31.970Z,94.80
2018-05-12T07:26:00.338Z,94.30
2018-05-12T07:28:27.915Z,94.30
2018-05-12T07:30:56.263Z,94.30
2018-05-12T07:33:23.849Z,94.20
2018-05-12T07:35:51.430Z,93.40
2018-05-12T07:38:19.755Z,93.40
2018-05-12T07:40:47.343Z,93.30
2018-05-12T07:43:15.020Z,93.20
2018-05-12T07:45:42.625Z,92.10
2018-05-12T07:48:10.195Z,92.10
2018-05-12T07:50:37.803Z,91.10
2018-05-12T07:53:05.451Z,90.80
2018-05-12T07:55:33.032Z,90.20
2018-05-12T07:58:00.640Z,89.70
2018-05-12T08:00:28.993Z,90.00
2018-05-12T08:02:56.580Z,90.00
2018-05-12T08:05:24.939Z,89.90
2018-05-12T08:07:52.506Z,89.90
2018-05-12T08:10:20.082Z,90.20
2018-05-12T08:12:47.681Z,87.20
2018-05-12T08:15:15.301Z,88.60
2018-05-12T08:17:42.912Z,85.70
2018-05-12T08:20:10.530Z,85.30
2018-05-12T08:22:38.132Z,85.60
2018-05-12T08:25:05.822Z,85.10
2018-05-12T08:27:33.391Z,83.70
2018-05-12T08:30:01.014Z,84.20
2018-05-12T08:32:28.644Z,85.30
2018-05-12T08:34:56.229Z,82.60
2018-05-12T08:37:23.801Z,85.70
2018-05-12T08:39:51.380Z,83.60
2018-05-12T08:42:19.728Z,86.20
2018-05-12T08:44:47.321Z,86.10
2018-05-12T08:47:15.671Z,84.60
2018-05-12T08:49:43.268Z,84.60
2018-05-12T08:52:11.602Z,81.00
2018-05-12T08:54:39.218Z,80.90
2018-05-12T08:57:07.582Z,80.90
2018-05-12T08:59:35.280Z,80.90
2018-05-12T09:02:02.870Z,81.40
2018-05-12T09:04:30.466Z,79.10
2018-05-12T09:06:58.061Z,78.50
2018-05-12T09:09:26.406Z,75.90
2018-05-12T09:11:54.013Z,75.80
2018-05-12T09:14:22.350Z,76.60
2018-05-12T09:16:49.909Z,76.60
2018-05-12T09:19:17.541Z,76.90
2018-05-12T09:21:45.080Z,76.50
2018-05-12T09:24:12.655Z,76.10
2018-05-12T09:26:41.032Z,71.90
2018-05-12T09:29:09.407Z,70.70
2018-05-12T09:31:37.016Z,70.70
2018-05-12T09:34:05.399Z,72.70
2018-05-12T09:36:32.978Z,72.60
2018-05-12T09:39:00.539Z,74.10
2018-05-12T09:41:28.143Z,73.70
2018-05-12T09:43:55.723Z,72.20
2018-05-12T09:46:23.294Z,68.80
2018-05-12T09:48:51.644Z,69.40
2018-05-12T09:51:19.798Z,69.40
2018-05-12T09:53:47.405Z,67.40
2018-05-12T09:56:14.967Z,68.60
2018-05-12T09:58:42.567Z,69.30
2018-05-12T10:01:10.156Z,66.50
2018-05-12T10:03:37.740Z,67.60
2018-05-12T10:06:05.351Z,67.50
2018-05-12T10:08:33.720Z,65.60
2018-05-12T10:11:02.064Z,65.00
2018-05-12T10:13:29.644Z,64.80
2018-05-12T10:15:57.848Z,67.90
2018-05-12T10:18:26.217Z,62.60
2018-05-12T10:20:53.797Z,62.40
2018-05-12T10:23:22.117Z,64.30
2018-05-12T10:25:49.694Z,64.50
2018-05-12T10:28:17.266Z,61.70
2018-05-12T10:30:44.868Z,60.80
2018-05-12T10:33:12.426Z,59.90
2018-05-12T10:35:40.019Z,63.10
2018-05-12T10:38:07.579Z,63.30
2018-05-12T10:40:35.177Z,62.60
2018-05-12T10:43:02.772Z,61.20
2018-05-12T10:45:30.430Z,60.60
2018-05-12T10:47:57.991Z,60.80
2018-05-12T10:50:25.581Z,58.20
2018-05-12T10:52:53.162Z,60.70
2018-05-12T10:55:21.501Z,60.50
2018-05-12T10:57:49.084Z,60.50
2018-05-12T11:00:16.672Z,59.20
2018-05-12T11:02:45.062Z,58.80
2018-05-12T11:05:12.644Z,58.80
2018-05-12T11:07:40.224Z,60.00
2018-05-12T11:10:07.805Z,60.50
2018-05-12T11:12:35.381Z,59.50
2018-05-12T11:15:02.987Z,58.50
2018-05-12T11:17:31.321Z,59.30
2018-05-12T11:19:58.903Z,59.20
2018-05-12T11:22:26.493Z,56.30
2018-05-12T11:24:54.065Z,56.60
2018-05-12T11:27:21.665Z,58.90
2018-05-12T11:29:49.251Z,57.90
2018-05-12T11:32:16.975Z,58.70
2018-05-12T11:34:44.502Z,58.20
2018-05-12T11:37:12.113Z,57.30
2018-05-12T11:39:39.698Z,56.50
2018-05-12T11:42:07.293Z,55.50
2018-05-12T11:44:34.926Z,55.50
2018-05-12T11:47:02.534Z,55.30
2018-05-12T11:49:31.459Z,56.40
2018-05-12T11:51:59.082Z,56.00
2018-05-12T11:54:26.694Z,57.20
2018-05-12T11:56:54.277Z,55.80
2018-05-12T11:59:21.927Z,56.50
2018-05-12T12:01:49.516Z,56.70
2018-05-12T12:04:17.127Z,54.00
2018-05-12T12:06:45.467Z,54.30
2018-05-12T12:09:13.610Z,54.30
2018-05-12T12:11:41.224Z,52.00
2018-05-12T12:14:08.847Z,53.50
2018-05-12T12:16:36.489Z,52.40
2018-05-12T12:19:04.819Z,52.40
2018-05-12T12:21:32.390Z,51.70
2018-05-12T12:23:59.964Z,52.60
2018-05-12T12:26:27.544Z,50.70
2018-05-12T12:28:55.139Z,50.70
2018-05-12T12:31:22.725Z,49.20
2018-05-12T12:33:50.308Z,51.90
2018-05-12T12:36:17.950Z,52.40
2018-05-12T12:38:45.574Z,49.30
2018-05-12T12:41:13.942Z,51.50
2018-05-12T12:43:41.515Z,51.40
2018-05-12T12:46:09.868Z,50.60
2018-05-12T12:48:37.435Z,50.70
2018-05-12T12:51:04.995Z,50.80
2018-05-12T12:53:32.589Z,49.90
2018-05-12T12:56:00.175Z,50.00
2018-05-12T12:58:28.563Z,46.60
2018-05-12T13:00:56.128Z,46.60
2018-05-12T13:03:23.735Z,47.90
2018-05-12T13:05:51.333Z,49.90
2018-05-12T13:08:18.946Z,46.90
2018-05-12T13:10:46.519Z,47.60
2018-05-12T13:13:14.121Z,47.40
2018-05-12T13:15:41.708Z,46.50
2018-05-12T13:18:10.161Z,48.70
2018-05-12T13:20:37.762Z,48.70
2018-05-12T13:23:06.162Z,49.30
2018-05-12T13:25:33.774Z,49.30
2018-05-12T13:28:01.469Z,46.50
2018-05-12T13:30:29.072Z,46.60
2018-05-12T13:32:56.650Z,45.60
2018-05-12T13:35:25.969Z,45.70
2018-05-12T13:37:53.562Z,45.60
2018-05-12T13:40:22.738Z,42.70
2018-05-12T13:42:50.369Z,42.70
2018-05-12T13:45:17.957Z,41.60
2018-05-12T13:47:45.564Z,43.70
2018-05-12T13:50:13.929Z,43.20
2018-05-12T13:52:41.573Z,43.30
2018-05-12T13:55:09.153Z,42.70
2018-05-12T13:57:36.747Z,42.90
2018-05-12T14:00:04.357Z,44.40
2018-05-12T14:02:31.938Z,42.50
2018-05-12T14:04:59.520Z,41.90
2018-05-12T14:07:27.141Z,43.00
2018-05-12T14:09:54.720Z,43.30
2018-05-12T14:12:22.308Z,42.30
2018-05-12T14:14:49.903Z,43.60
2018-05-12T14:17:18.240Z,42.00
2018-05-12T14:19:45.804Z,41.90
2018-05-12T14:22:13.435Z,41.80
2018-05-12T14:24:41.044Z,42.00
2018-05-12T14:27:08.639Z,41.50
2018-05-12T14:29:36.987Z,42.40
2018-05-12T14:32:04.582Z,42.40
2018-05-12T14:34:32.169Z,44.50
2018-05-12T14:36:59.730Z,43.20
2018-05-12T14:39:28.130Z,42.90
2018-05-12T14:41:55.722Z,42.90
2018-05-12T14:44:23.324Z,42.30
2018-05-12T14:46:50.931Z,43.40
2018-05-12T14:49:18.512Z,43.20
2018-05-12T14:51:46.078Z,42.10
2018-05-12T14:54:13.656Z,42.70
2018-05-12T14:56:41.262Z,43.30
2018-05-12T14:59:10.099Z,43.90
2018-05-12T15:01:37.679Z,43.30
2018-05-12T15:04:05.263Z,43.90
2018-05-12T15:06:33.631Z,42.10
2018-05-12T15:09:02.095Z,42.00
2018-05-12T15:11:29.661Z,41.00
2018-05-12T15:13:57.249Z,42.00
2018-05-12T15:16:24.862Z,42.40
2018-05-12T15:18:52.444Z,42.30
2018-05-12T15:21:20.119Z,42.70
2018-05-12T15:23:48.425Z,43.80
2018-05-12T15:26:16.029Z,43.80
2018-05-12T15:28:43.633Z,43.20
2018-05-12T15:31:11.250Z,43.00
2018-05-12T15:33:39.646Z,40.60
2018-05-12T15:36:07.296Z,40.60
2018-05-12T15:38:34.850Z,41.70
2018-05-12T15:41:02.437Z,42.20
2018-05-12T15:43:30.798Z,41.50
2018-05-12T15:45:58.375Z,41.40
2018-05-12T15:48:26.760Z,43.10
2018-05-12T15:50:55.096Z,40.80
2018-05-12T15:53:22.665Z,40.80
2018-05-12T15:55:50.351Z,43.10
2018-05-12T15:58:18.445Z,41.40
2018-05-12T16:00:46.091Z,41.80
2018-05-12T16:03:13.787Z,41.20
2018-05-12T16:05:41.313Z,40.60
2018-05-12T16:08:08.934Z,40.80
2018-05-12T16:10:37.240Z,41.70
2018-05-12T16:13:04.841Z,42.00
2018-05-12T16:15:32.442Z,42.90
2018-05-12T16:18:00.028Z,42.70
2018-05-12T16:20:27.633Z,42.80
2018-05-12T16:22:55.270Z,43.90
2018-05-12T16:25:22.867Z,44.10
2018-05-12T16:27:50.434Z,45.50
2018-05-12T16:30:18.772Z,44.70
2018-05-12T16:32:47.155Z,46.00
2018-05-12T16:35:14.715Z,46.00
2018-05-12T16:37:42.297Z,45.10
2018-05-12T16:40:09.957Z,46.20
2018-05-12T16:42:37.577Z,45.80
2018-05-12T16:45:05.931Z,46.30
2018-05-12T16:47:33.532Z,46.30
2018-05-12T16:50:01.097Z,46.50
2018-05-12T16:52:28.731Z,45.80
2018-05-12T16:54:56.344Z,46.30
2018-05-12T16:57:23.952Z,46.50
2018-05-12T16:59:51.520Z,47.60
2018-05-12T17:02:19.154Z,48.60
2018-05-12T17:04:46.802Z,48.60
2018-05-12T17:07:14.397Z,48.80
2018-05-12T17:09:41.968Z,48.90
2018-05-12T17:12:09.635Z,49.80
2018-05-12T17:14:37.220Z,49.90
2018-05-12T17:17:05.421Z,52.00
2018-05-12T17:19:33.760Z,49.90
2018-05-12T17:22:01.351Z,49.90
2018-05-12T17:24:28.920Z,49.20
2018-05-12T17:26:56.493Z,50.20
2018-05-12T17:29:24.133Z,50.50
2018-05-12T17:31:51.724Z,51.30
2018-05-12T17:34:20.101Z,51.90
2018-05-12T17:36:47.728Z,51.80
2018-05-12T17:39:15.331Z,51.40
2018-05-12T17:41:42.911Z,52.20
2018-05-12T17:44:11.376Z,53.20
2018-05-12T17:46:38.952Z,53.10
2018-05-12T17:49:07.376Z,55.20
2018-05-12T17:51:34.951Z,55.10
2018-05-12T17:54:02.548Z,53.80
2018-05-12T17:56:30.148Z,53.60
2018-05-12T17:58:57.721Z,54.90
2018-05-12T18:01:25.320Z,53.20
2018-05-12T18:03:52.928Z,53.00
2018-05-12T18:06:21.317Z,54.00
2018-05-12T18:08:48.903Z,53.20
2018-05-12T18:11:16.600Z,52.70
2018-05-12T18:13:44.201Z,52.60
2018-05-12T18:16:11.842Z,54.00
2018-05-12T18:18:39.429Z,53.60
2018-05-12T18:21:07.064Z,54.20
2018-05-12T18:23:34.652Z,54.40
2018-05-12T18:26:02.233Z,55.00
2018-05-12T18:28:29.840Z,55.60
2018-05-12T18:30:57.417Z,56.00
2018-05-12T18:33:25.069Z,56.40
2018-05-12T18:35:52.662Z,56.20
2018-05-12T18:38:20.232Z,56.30
2018-05-12T18:40:47.814Z,57.10
2018-05-12T18:43:15.443Z,56.90
2018-05-12T18:45:43.070Z,57.50
2018-05-12T18:48:11.413Z,57.60
2018-05-12T18:50:39.033Z,57.60
2018-05-12T18:53:07.351Z,59.40
2018-05-12T18:55:34.955Z,58.70
2018-05-12T18:58:03.335Z,58.80
2018-05-12T19:00:30.897Z,58.80
2018-05-12T19:02:58.533Z,59.20
2018-05-12T19:05:26.117Z,59.70
2018-05-12T19:07:53.721Z,59.50
2018-05-12T19:10:21.342Z,59.50
2018-05-12T19:12:48.938Z,59.60
2018-05-12T19:15:17.334Z,60.60
2018-05-12T19:17:44.938Z,61.40
2018-05-12T19:20:12.524Z,61.50
2018-05-12T19:22:40.922Z,62.10
2018-05-12T19:25:09.373Z,62.10
2018-05-12T19:27:36.930Z,62.20
2018-05-12T19:30:04.545Z,62.30
2018-05-12T19:32:32.136Z,62.70
2018-05-12T19:34:59.701Z,62.70
2018-05-12T19:37:27.289Z,62.70
2018-05-12T19:39:54.891Z,64.20
2018-05-12T19:42:23.249Z,64.30
2018-05-12T19:44:50.838Z,63.80
2018-05-12T19:47:18.910Z,63.70
2018-05-12T19:49:46.503Z,64.10
2018-05-12T19:52:14.090Z,63.90
2018-05-12T19:54:42.324Z,64.50
2018-05-12T19:57:09.912Z,64.60
2018-05-12T19:59:37.576Z,65.10
2018-05-12T20:02:05.218Z,64.70
2018-05-12T20:04:32.784Z,65.10
2018-05-12T20:07:01.245Z,65.40
2018-05-12T20:09:28.846Z,65.30
2018-05-12T20:11:57.198Z,65.50
2018-05-12T20:14:24.807Z,65.50
2018-05-12T20:16:53.159Z,66.10
2018-05-12T20:19:20.769Z,66.10
2018-05-12T20:21:48.381Z,66.20
2018-05-12T20:24:15.968Z,66.20
2018-05-12T20:26:43.571Z,66.50
2018-05-12T20:29:11.161Z,66.70
2018-05-12T20:31:38.765Z,67.00
2018-05-12T20:34:07.125Z,67.40
2018-05-12T20:36:34.728Z,67.30
2018-05-12T20:39:02.313Z,67.30
2018-05-12T20:41:29.908Z,68.00
2018-05-12T20:43:57.532Z,67.50
2018-05-12T20:46:26.010Z,67.90
2018-05-12T20:48:53.620Z,68.50
2018-05-12T20:51:21.292Z,68.00
2018-05-12T20:53:48.869Z,68.30
2018-05-12T20:56:16.450Z,68.60
2018-05-12T20:58:44.870Z,68.50
2018-05-12T21:01:12.438Z,68.50
2018-05-12T21:03:40.026Z,68.80
2018-05-12T21:06:07.604Z,69.30
2018-05-12T21:08:35.173Z,69.40
2018-05-12T21:11:02.730Z,69.30
2018-05-12T21:13:30.344Z,69.20
2018-05-12T21:15:57.915Z,69.50
2018-05-12T21:18:25.499Z,69.70
2018-05-12T21:20:53.164Z,70.00
2018-05-12T21:23:20.771Z,69.70
2018-05-12T21:25:48.411Z,70.00
2018-05-12T21:28:15.992Z,70.20
2018-05-12T21:30:43.601Z,70.40
2018-05-12T21:33:12.034Z,70.60
2018-05-12T21:35:39.624Z,70.70
2018-05-12T21:38:07.214Z,70.50
2018-05-12T21:40:34.828Z,71.20
2018-05-12T21:43:02.414Z,71.50
2018-05-12T21:45:29.990Z,71.10
2018-05-12T21:47:58.695Z,72.00
2018-05-12T21:50:27.520Z,72.00
2018-05-12T21:52:55.189Z,72.00
2018-05-12T21:55:22.803Z,72.40
2018-05-12T21:57:50.375Z,72.40
2018-05-12T22:00:17.985Z,73.30
2018-05-12T22:02:45.549Z,73.90
2018-05-12T22:05:13.143Z,74.40
2018-05-12T22:07:40.759Z,75.00
2018-05-12T22:10:08.372Z,75.60
2018-05-12T22:12:35.959Z,76.10
2018-05-12T22:15:03.608Z,76.30
2018-05-12T22:17:31.216Z,76.50
2018-05-12T22:19:58.852Z,76.80
2018-05-12T22:22:27.052Z,76.70
2018-05-12T22:24:55.442Z,77.10
2018-05-12T22:27:23.030Z,77.10
2018-05-12T22:29:50.610Z,77.30
2018-05-12T22:32:18.498Z,77.80
2018-05-12T22:34:46.169Z,78.40
2018-05-12T22:37:13.755Z,78.80
2018-05-12T22:39:41.379Z,79.70
2018-05-12T22:42:09.023Z,80.40
2018-05-12T22:44:36.637Z,81.10
2018-05-12T22:47:04.232Z,82.00
2018-05-12T22:49:31.825Z,82.50
2018-05-12T22:51:59.429Z,83.10
2018-05-12T22:54:27.053Z,83.90
2018-05-12T22:56:54.632Z,84.70
2018-05-12T22:59:23.080Z,85.40
2018-05-12T23:01:50.652Z,86.00
2018-05-12T23:04:18.260Z,86.60
2018-05-12T23:06:45.856Z,87.40
2018-05-12T23:09:13.435Z,87.90
2018-05-12T23:11:41.785Z,89.10
2018-05-12T23:14:09.350Z,89.10
2018-05-12T23:16:36.919Z,89.50
2018-05-12T23:19:04.509Z,90.10
2018-05-12T23:21:32.135Z,90.30
2018-05-12T23:23:59.714Z,90.60
2018-05-12T23:26:27.302Z,90.70
2018-05-12T23:28:55.647Z,91.20
2018-05-12T23:31:23.233Z,91.20
2018-05-12T23:33:50.859Z,91.60
2018-05-12T23:36:18.451Z,91.80
2018-05-12T23:38:46.049Z,92.10
2018-05-12T23:41:14.456Z,92.60
2018-05-12T23:43:42.105Z,92.60
2018-05-12T23:46:09.698Z,93.00
2018-05-12T23:48:37.290Z,93.20
2018-05-12T23:51:04.888Z,93.30
2018-05-12T23:53:33.240Z,93.80
2018-05-12T23:56:00.823Z,93.80
2018-05-12T23:58:29.213Z,94.20
